createdAt,value
2023-01-04T00:00:38.434Z,97.04
2023-01-04T00:03:46.599Z,96.89
2023-01-04T00:06:54.925Z,96.17
2023-01-04T00:10:02.335Z,95.96
2023-01-04T00:13:10.510Z,95.70
2023-01-04T00:16:18.597Z,95.49
2023-01-04T00:19:25.716Z,95.59
2023-01-04T00:22:33.874Z,95.74
2023-01-04T00:25:41.522Z,96.05
2023-01-04T00:28:54.209Z,96.05
2023-01-04T00:31:51.833Z,96.26
2023-01-04T00:34:59.984Z,96.47
2023-01-04T00:38:07.966Z,96.31
2023-01-04T00:41:34.859Z,96.31
2023-01-04T00:44:21.532Z,96.11
2023-01-04T00:47:29.280Z,95.80
2023-01-04T00:50:36.810Z,95.28
2023-01-04T00:53:45.007Z,95.07
2023-01-04T00:56:52.629Z,95.49
2023-01-04T01:00:00.199Z,95.24
2023-01-04T01:03:08.598Z,94.93
2023-01-04T01:06:16.432Z,94.72
2023-01-04T01:09:24.146Z,94.72
2023-01-04T01:12:32.567Z,94.82
2023-01-04T01:15:39.843Z,94.82
2023-01-04T01:18:48.414Z,94.56
2023-01-04T01:21:56.298Z,94.87
2023-01-04T01:25:03.748Z,94.97
2023-01-04T01:28:11.789Z,95.07
2023-01-04T01:31:19.728Z,95.28
2023-01-04T01:34:27.433Z,95.28
2023-01-04T01:38:13.568Z,95.70
2023-01-04T01:41:22.768Z,95.70
2023-01-04T01:44:30.447Z,95.80
2023-01-04T01:47:38.644Z,95.59
2023-01-04T01:50:47.070Z,95.59
2023-01-04T01:53:55.114Z,95.70
2023-01-04T01:57:03.187Z,95.59
2023-01-04T02:00:11.226Z,95.59
2023-01-04T02:03:19.835Z,95.59
2023-01-04T02:06:27.941Z,95.70
2023-01-04T02:09:35.560Z,95.24
2023-01-04T02:12:44.065Z,95.14
2023-01-04T02:15:51.855Z,94.93
2023-01-04T02:18:59.653Z,94.62
2023-01-04T02:22:07.559Z,94.37
2023-01-04T02:25:15.085Z,94.06
2023-01-04T02:28:23.675Z,93.74
2023-01-04T02:31:32.171Z,93.43
2023-01-04T02:34:40.168Z,93.43
2023-01-04T02:37:48.320Z,93.43
2023-01-04T02:40:56.720Z,93.43
2023-01-04T02:44:04.421Z,93.43
2023-01-04T02:47:12.252Z,93.23
2023-01-04T02:50:20.324Z,93.23
2023-01-04T02:53:28.063Z,93.43
2023-01-04T02:56:36.196Z,93.64
2023-01-04T02:59:44.053Z,93.85
2023-01-04T03:02:52.190Z,94.16
2023-01-04T03:06:00.256Z,94.16
2023-01-04T03:09:08.183Z,94.26
2023-01-04T03:12:15.986Z,94.22
2023-01-04T03:15:23.663Z,94.12
2023-01-04T03:18:32.141Z,93.97
2023-01-04T03:21:40.120Z,93.45
2023-01-04T03:24:47.733Z,93.35
2023-01-04T03:27:56.267Z,93.30
2023-01-04T03:31:04.061Z,93.20
2023-01-04T03:34:12.896Z,93.10
2023-01-04T03:37:21.393Z,92.99
2023-01-04T03:40:29.182Z,92.89
2023-01-04T03:43:37.963Z,92.85
2023-01-04T03:46:46.399Z,92.54
2023-01-04T03:49:53.906Z,91.92
2023-01-04T03:53:02.216Z,91.67
2023-01-04T03:56:10.906Z,91.26
2023-01-04T03:59:18.435Z,90.80
2023-01-04T04:02:26.902Z,90.08
2023-01-04T04:05:35.416Z,89.62
2023-01-04T04:08:43.538Z,89.28
2023-01-04T04:11:51.519Z,88.96
2023-01-04T04:14:59.517Z,88.20
2023-01-04T04:18:07.992Z,87.59
2023-01-04T04:21:16.076Z,87.44
2023-01-04T04:24:24.030Z,87.75
2023-01-04T04:27:32.237Z,88.78
2023-01-04T04:30:39.643Z,89.19
2023-01-04T04:33:48.206Z,90.12
2023-01-04T04:36:56.595Z,91.36
2023-01-04T04:40:04.265Z,91.91
2023-01-04T04:43:12.404Z,92.63
2023-01-04T04:46:21.036Z,92.43
2023-01-04T04:49:28.587Z,92.02
2023-01-04T04:52:36.863Z,91.87
2023-01-04T04:55:45.121Z,92.18
2023-01-04T04:58:52.870Z,92.29
2023-01-04T05:02:02.476Z,92.69
2023-01-04T05:05:10.711Z,93.01
2023-01-04T05:08:18.886Z,93.31
2023-01-04T05:11:27.333Z,94.03
2023-01-04T05:14:35.092Z,94.34
2023-01-04T05:17:43.008Z,95.00
2023-01-04T05:20:51.056Z,95.52
2023-01-04T05:23:59.414Z,95.93
2023-01-04T05:27:07.594Z,96.55
2023-01-04T05:30:15.500Z,96.75
2023-01-04T05:33:23.987Z,97.06
2023-01-04T05:36:32.109Z,97.58
2023-01-04T05:39:39.588Z,97.94
2023-01-04T05:42:47.731Z,98.14
2023-01-04T05:45:55.219Z,98.03
2023-01-04T05:49:03.440Z,97.94
2023-01-04T05:52:11.447Z,97.63
2023-01-04T05:55:18.919Z,97.52
2023-01-04T05:58:27.014Z,96.96
2023-01-04T06:01:35.181Z,96.75
2023-01-04T06:04:43.180Z,96.66
2023-01-04T06:07:51.237Z,96.45
2023-01-04T06:10:59.437Z,96.14
2023-01-04T06:14:06.865Z,95.83
2023-01-04T06:17:15.004Z,95.52
2023-01-04T06:20:23.141Z,95.48
2023-01-04T06:23:31.132Z,95.68
2023-01-04T06:26:39.615Z,96.20
2023-01-04T06:29:47.773Z,96.71
2023-01-04T06:32:55.902Z,96.81
2023-01-04T06:36:04.311Z,97.23
2023-01-04T06:39:12.495Z,97.58
2023-01-04T06:42:20.420Z,97.89
2023-01-04T06:45:28.008Z,97.78
2023-01-04T06:48:35.904Z,97.78
2023-01-04T06:51:43.892Z,97.74
2023-01-04T06:54:51.550Z,97.43
2023-01-04T06:57:59.956Z,96.61
2023-01-04T07:01:08.146Z,95.99
2023-01-04T07:04:16.443Z,95.48
2023-01-04T07:07:25.057Z,95.23
2023-01-04T07:10:32.487Z,94.92
2023-01-04T07:13:40.904Z,94.71
2023-01-04T07:16:49.136Z,94.81
2023-01-04T07:19:56.689Z,94.60
2023-01-04T07:23:04.887Z,94.71
2023-01-04T07:26:13.012Z,94.51
2023-01-04T07:29:20.359Z,94.51
2023-01-04T07:32:28.660Z,94.71
2023-01-04T07:35:37.032Z,94.81
2023-01-04T07:38:44.459Z,94.60
2023-01-04T07:41:53.224Z,94.60
2023-01-04T07:45:01.148Z,94.46
2023-01-04T07:48:09.383Z,94.26
2023-01-04T07:51:17.645Z,94.15
2023-01-04T07:54:25.501Z,94.26
2023-01-04T07:57:33.397Z,94.26
2023-01-04T08:00:41.370Z,94.26
2023-01-04T08:03:49.444Z,94.26
2023-01-04T08:06:57.364Z,93.95
2023-01-04T08:10:05.288Z,93.95
2023-01-04T08:13:13.510Z,94.05
2023-01-04T08:16:21.567Z,93.95
2023-01-04T08:19:29.412Z,93.49
2023-01-04T08:22:37.635Z,93.29
2023-01-04T08:25:45.535Z,93.29
2023-01-04T08:28:53.212Z,93.29
2023-01-04T08:32:01.355Z,93.08
2023-01-04T08:35:09.413Z,93.29
2023-01-04T08:38:57.565Z,93.08
2023-01-04T08:41:56.033Z,93.08
2023-01-04T08:44:28.052Z,93.18
2023-01-04T08:47:36.019Z,93.04
2023-01-04T08:50:44.276Z,92.93
2023-01-04T08:53:52.076Z,93.04
2023-01-04T08:57:00.473Z,93.14
2023-01-04T09:00:08.345Z,92.93
2023-01-04T09:03:15.973Z,93.04
2023-01-04T09:06:24.140Z,93.04
2023-01-04T09:09:32.713Z,93.04
2023-01-04T09:12:40.218Z,92.83
2023-01-04T09:15:48.803Z,93.04
2023-01-04T09:18:57.172Z,93.35
2023-01-04T09:22:05.368Z,93.35
2023-01-04T09:25:13.454Z,93.14
2023-01-04T09:28:23.131Z,93.10
2023-01-04T09:31:31.599Z,93.40
2023-01-04T09:34:39.664Z,94.07
2023-01-04T09:37:47.628Z,96.02
2023-01-04T09:40:56.219Z,97.15
2023-01-04T09:44:04.101Z,98.12
2023-01-04T09:47:12.264Z,98.63
2023-01-04T09:50:21.129Z,99.05
2023-01-04T09:53:28.825Z,99.35
2023-01-04T09:56:37.344Z,99.46
2023-01-04T09:59:45.867Z,99.56
2023-01-04T10:02:53.815Z,99.35
2023-01-04T10:06:02.299Z,99.15
2023-01-04T10:09:10.443Z,98.69
2023-01-04T10:12:18.486Z,98.28
2023-01-04T10:15:26.866Z,97.77
2023-01-04T10:19:59.880Z,97.56
2023-01-04T10:21:39.993Z,97.41
2023-01-04T10:24:47.687Z,97.20
2023-01-04T10:27:56.371Z,96.80
2023-01-04T10:31:40.982Z,96.80
2023-01-04T10:34:12.755Z,96.34
2023-01-04T10:37:13.870Z,96.14
2023-01-04T10:40:21.834Z,96.14
2023-01-04T10:43:29.487Z,95.93
2023-01-04T10:46:38.017Z,95.72
2023-01-04T10:49:45.952Z,95.62
2023-01-04T10:52:54.064Z,95.21
2023-01-04T10:56:26.428Z,94.85
2023-01-04T10:59:08.123Z,94.85
2023-01-04T11:02:16.153Z,95.06
2023-01-04T11:05:24.533Z,95.57
2023-01-04T11:08:32.516Z,95.89
2023-01-04T11:11:41.049Z,96.09
2023-01-04T11:14:49.513Z,96.55
2023-01-04T11:17:57.833Z,96.95
2023-01-04T11:21:06.079Z,97.99
2023-01-04T11:24:31.377Z,98.85
2023-01-04T11:27:23.591Z,99.57
2023-01-04T11:30:23.202Z,99.99
2023-01-04T11:33:31.681Z,99.99
2023-01-04T11:36:39.751Z,99.99
2023-01-04T11:39:47.855Z,99.99
2023-01-04T11:42:56.327Z,99.99
2023-01-04T11:46:04.392Z,99.99
2023-01-04T11:49:13.015Z,99.99
2023-01-04T11:52:21.400Z,99.99
2023-01-04T11:55:28.942Z,99.99
2023-01-04T11:58:37.381Z,99.99
2023-01-04T12:01:45.756Z,99.99
2023-01-04T12:04:53.324Z,99.99
2023-01-04T12:08:01.620Z,99.99
2023-01-04T12:11:09.383Z,99.99
2023-01-04T12:14:17.815Z,99.99
2023-01-04T12:17:25.965Z,99.99
2023-01-04T12:20:33.888Z,99.99
2023-01-04T12:23:42.229Z,99.99
2023-01-04T12:26:50.176Z,99.99
2023-01-04T12:29:58.295Z,99.99
2023-01-04T12:33:06.325Z,99.99
2023-01-04T12:36:14.104Z,99.99
2023-01-04T12:39:22.490Z,99.99
2023-01-04T12:42:30.616Z,99.99
2023-01-04T12:45:38.293Z,99.99
2023-01-04T12:48:46.587Z,99.99
2023-01-04T12:54:59.638Z,99.99
2023-01-04T12:58:08.115Z,99.99
2023-01-04T13:01:16.212Z,99.99
2023-01-04T13:04:24.216Z,99.99
2023-01-04T13:07:32.869Z,99.99
2023-01-04T13:10:40.748Z,99.99
2023-01-04T13:13:48.677Z,99.99
2023-01-04T13:16:56.799Z,99.99
2023-01-04T13:20:05.239Z,99.99
2023-01-04T13:23:13.228Z,99.99
2023-01-04T13:26:21.384Z,99.99
2023-01-04T13:29:29.770Z,99.99
2023-01-04T13:32:59.409Z,99.99
2023-01-04T13:35:43.185Z,99.99
2023-01-04T13:38:51.860Z,99.99
2023-01-04T13:41:59.902Z,99.99
2023-01-04T13:45:24.007Z,99.99
2023-01-04T13:48:13.864Z,99.99
2023-01-04T13:51:21.498Z,99.99
2023-01-04T13:57:34.812Z,99.99
2023-01-04T14:00:43.157Z,99.99
2023-01-04T14:03:51.151Z,99.99
2023-01-04T14:06:59.039Z,99.99
2023-01-04T14:10:07.154Z,99.99
2023-01-04T14:13:14.619Z,99.99
2023-01-04T14:16:23.158Z,99.99
2023-01-04T14:19:31.738Z,99.99
2023-01-04T14:22:39.375Z,99.99
2023-01-04T14:25:47.709Z,99.99
2023-01-04T14:28:55.947Z,99.99
2023-01-04T14:32:03.597Z,99.99
2023-01-04T14:35:11.731Z,99.99
2023-01-04T14:38:19.728Z,99.99
2023-01-04T14:41:27.842Z,99.99
2023-01-04T14:44:36.120Z,99.99
2023-01-04T14:47:43.914Z,99.99
2023-01-04T14:50:52.072Z,99.99
2023-01-04T14:54:00.261Z,99.99
2023-01-04T14:57:08.379Z,99.99
2023-01-04T15:00:19.547Z,99.99
2023-01-04T15:03:17.664Z,99.99
2023-01-04T15:06:26.158Z,99.99
2023-01-04T15:09:34.263Z,99.99
2023-01-04T15:12:42.105Z,99.99
2023-01-04T15:15:50.273Z,99.99
2023-01-04T15:18:58.203Z,99.99
2023-01-04T15:22:05.992Z,99.99
2023-01-04T15:25:14.310Z,99.99
2023-01-04T15:28:22.044Z,99.99
2023-01-04T15:31:36.822Z,99.99
2023-01-04T15:34:39.470Z,99.99
2023-01-04T15:37:38.609Z,99.99
2023-01-04T15:40:46.792Z,99.99
2023-01-04T15:43:55.110Z,99.99
2023-01-04T15:47:02.691Z,99.99
2023-01-04T15:50:10.916Z,99.99
2023-01-04T15:53:19.296Z,99.99
2023-01-04T15:56:27.145Z,99.99
2023-01-04T15:59:35.517Z,99.99
2023-01-04T16:02:43.778Z,99.99
2023-01-04T16:05:52.001Z,99.99
2023-01-04T16:08:59.823Z,99.99
2023-01-04T16:12:07.579Z,99.99
2023-01-04T16:15:15.655Z,99.99
2023-01-04T16:18:26.350Z,99.99
2023-01-04T16:21:27.114Z,99.99
2023-01-04T16:27:40.411Z,99.01
2023-01-04T16:30:50.726Z,98.49
2023-01-04T16:34:00.142Z,97.37
2023-01-04T16:37:07.525Z,96.81
2023-01-04T16:40:15.918Z,96.20
2023-01-04T16:43:23.707Z,96.10
2023-01-04T16:46:31.781Z,96.00
2023-01-04T16:49:40.217Z,95.59
2023-01-04T16:52:48.118Z,95.28
2023-01-04T16:55:56.212Z,95.28
2023-01-04T16:59:04.348Z,95.59
2023-01-04T17:02:13.099Z,94.32
2023-01-04T17:05:21.208Z,94.11
2023-01-04T17:08:29.016Z,93.96
2023-01-04T17:12:36.252Z,94.32
2023-01-04T17:14:43.603Z,94.73
2023-01-04T17:17:51.599Z,94.73
2023-01-04T17:21:31.622Z,94.11
2023-01-04T17:24:04.611Z,93.29
2023-01-04T17:27:12.696Z,92.88
2023-01-04T17:30:20.727Z,92.88
2023-01-04T17:33:28.268Z,92.88
2023-01-04T17:36:36.452Z,93.09
2023-01-04T17:39:44.623Z,93.19
2023-01-04T17:42:52.262Z,93.29
2023-01-04T17:46:00.342Z,93.50
2023-01-04T17:49:30.537Z,93.60
2023-01-04T17:52:20.085Z,93.91
2023-01-04T17:55:18.243Z,93.70
2023-01-04T17:58:26.430Z,92.84
2023-01-04T18:01:34.261Z,92.13
2023-01-04T18:04:42.470Z,91.92
2023-01-04T18:07:50.720Z,90.75
2023-01-04T18:11:07.472Z,90.25
2023-01-04T18:14:07.813Z,90.55
2023-01-04T18:17:08.657Z,90.66
2023-01-04T18:20:24.708Z,90.86
2023-01-04T18:23:25.832Z,91.06
2023-01-04T18:26:23.450Z,91.47
2023-01-04T18:29:30.930Z,89.98
2023-01-04T18:32:39.357Z,92.37
2023-01-04T18:35:47.829Z,94.26
2023-01-04T18:38:55.827Z,96.96
2023-01-04T18:42:03.635Z,98.08
2023-01-04T18:45:12.003Z,97.88
2023-01-04T18:48:19.811Z,98.08
2023-01-04T18:51:28.012Z,98.39
2023-01-04T18:54:35.629Z,98.90
2023-01-04T18:57:43.946Z,99.11
2023-01-04T19:00:52.157Z,99.21
2023-01-04T19:03:59.901Z,99.41
2023-01-04T19:07:08.412Z,99.11
2023-01-04T19:10:16.484Z,98.60
2023-01-04T19:13:24.348Z,97.37
2023-01-04T19:16:33.170Z,96.86
2023-01-04T19:19:41.446Z,96.45
2023-01-04T19:22:49.480Z,95.84
2023-01-04T19:25:57.956Z,95.48
2023-01-04T19:29:05.798Z,95.18
2023-01-04T19:32:14.673Z,94.67
2023-01-04T19:35:23.395Z,94.56
2023-01-04T19:38:32.024Z,94.15
2023-01-04T19:41:41.493Z,94.06
2023-01-04T19:44:49.978Z,93.60
2023-01-04T19:47:58.202Z,93.60
2023-01-04T19:51:06.831Z,93.29
2023-01-04T19:54:18.683Z,92.88
2023-01-04T19:57:18.244Z,92.88
2023-01-04T20:00:27.327Z,92.99
2023-01-04T20:03:35.207Z,92.99
2023-01-04T20:06:43.237Z,92.74
2023-01-04T20:09:51.257Z,92.68
2023-01-04T20:12:59.344Z,92.68
2023-01-04T20:16:08.376Z,92.58
2023-01-04T20:19:16.622Z,92.47
2023-01-04T20:22:24.562Z,91.92
2023-01-04T20:25:32.635Z,92.02
2023-01-04T20:28:40.706Z,92.13
2023-01-04T20:31:48.691Z,91.72
2023-01-04T20:34:56.871Z,91.41
2023-01-04T20:38:04.248Z,91.72
2023-01-04T20:41:12.605Z,91.72
2023-01-04T20:44:20.793Z,91.61
2023-01-04T20:47:28.456Z,91.92
2023-01-04T20:50:36.607Z,93.05
2023-01-04T20:53:44.457Z,95.34
2023-01-04T20:56:52.499Z,96.92
2023-01-04T21:00:00.104Z,97.63
2023-01-04T21:03:08.336Z,97.98
2023-01-04T21:06:16.450Z,97.98
2023-01-04T21:09:24.535Z,97.57
2023-01-04T21:12:32.571Z,96.14
2023-01-04T21:15:40.671Z,95.38
2023-01-04T21:18:49.791Z,94.15
2023-01-04T21:21:57.755Z,93.74
2023-01-04T21:25:06.895Z,93.28
2023-01-04T21:28:14.952Z,92.83
2023-01-04T21:31:23.006Z,93.07
2023-01-04T21:34:32.040Z,93.28
2023-01-04T21:37:39.867Z,92.87
2023-01-04T21:40:48.478Z,92.01
2023-01-04T21:43:56.693Z,91.50
2023-01-04T21:47:04.742Z,90.88
2023-01-04T21:50:16.907Z,90.58
2023-01-04T21:53:14.465Z,90.47
2023-01-04T21:56:22.875Z,90.37
2023-01-04T21:59:31.044Z,90.06
2023-01-04T22:02:38.819Z,90.06
2023-01-04T22:05:47.452Z,90.17
2023-01-04T22:08:55.791Z,90.06
2023-01-04T22:12:03.091Z,90.06
2023-01-04T22:15:11.541Z,89.65
2023-01-04T22:18:20.440Z,89.76
2023-01-04T22:21:28.157Z,89.15
2023-01-04T22:24:38.296Z,88.84
2023-01-04T22:27:46.612Z,89.04
2023-01-04T22:30:54.315Z,90.27
2023-01-04T22:34:02.945Z,90.58
2023-01-04T22:37:11.124Z,90.52
2023-01-04T22:40:19.061Z,90.21
2023-01-04T22:43:27.419Z,90.72
2023-01-04T22:46:35.756Z,90.52
2023-01-04T22:49:43.747Z,90.00
2023-01-04T22:52:51.936Z,90.21
2023-01-04T22:56:18.365Z,89.90
2023-01-04T22:59:04.860Z,90.31
2023-01-04T23:02:12.869Z,91.44
2023-01-04T23:05:21.354Z,93.84
2023-01-04T23:08:29.420Z,96.64
2023-01-04T23:11:37.512Z,98.74
2023-01-04T23:14:46.187Z,99.99
2023-01-04T23:17:53.768Z,99.99
2023-01-04T23:21:01.679Z,99.99
2023-01-04T23:24:10.090Z,99.99
2023-01-04T23:27:18.329Z,99.99
2023-01-04T23:30:26.291Z,99.99
2023-01-04T23:33:36.816Z,99.99
2023-01-04T23:36:45.004Z,99.99
2023-01-04T23:39:52.961Z,99.99
2023-01-04T23:43:01.236Z,99.99
2023-01-04T23:46:42.912Z,99.99
2023-01-04T23:49:51.387Z,99.99
2023-01-04T23:52:59.598Z,99.99
2023-01-04T23:56:07.601Z,99.99
2023-01-04T23:59:15.640Z,99.99
